createdAt,value
2022-12-13T00:00:52.046Z,98630.63
2022-12-13T00:02:00.163Z,98630.34
2022-12-13T00:03:04.229Z,98639.03
2022-12-13T00:04:14.466Z,98633.31
2022-12-13T00:05:18.305Z,98637.69
2022-12-13T00:06:21.906Z,98635.91
2022-12-13T00:07:25.695Z,98639.69
2022-12-13T00:08:30.434Z,98642.13
2022-12-13T00:09:34.867Z,98638.66
2022-12-13T00:10:38.869Z,98643.06
2022-12-13T00:11:43.200Z,98635.13
2022-12-13T00:12:47.129Z,98639.69
2022-12-13T00:13:51.427Z,98633.38
2022-12-13T00:15:01.737Z,98641.84
2022-12-13T00:16:11.133Z,98640.16
2022-12-13T00:17:14.803Z,98634.22
2022-12-13T00:18:18.887Z,98640.53
2022-12-13T00:19:22.981Z,98635.31
2022-12-13T00:20:26.682Z,98642.84
2022-12-13T00:21:34.436Z,98635.63
2022-12-13T00:22:39.470Z,98627.72
2022-12-13T00:23:43.055Z,98629.41
2022-12-13T00:24:47.218Z,98638.94
2022-12-13T00:25:51.589Z,98638.06
2022-12-13T00:26:56.824Z,98631.19
2022-12-13T00:28:00.882Z,98635.50
2022-12-13T00:29:07.557Z,98636.59
2022-12-13T00:30:11.341Z,98637.38
2022-12-13T00:32:39.980Z,98636.31
2022-12-13T00:33:44.278Z,98640.78
2022-12-13T00:34:48.894Z,98650.38
2022-12-13T00:35:53.139Z,98651.22
2022-12-13T00:36:59.584Z,98653.13
2022-12-13T00:38:03.246Z,98647.16
2022-12-13T00:39:07.069Z,98650.44
2022-12-13T00:40:11.553Z,98649.41
2022-12-13T00:41:22.431Z,98663.28
2022-12-13T00:42:36.155Z,98651.31
2022-12-13T00:43:39.968Z,98654.03
2022-12-13T00:44:43.667Z,98655.78
2022-12-13T00:45:47.599Z,98650.44
2022-12-13T00:46:54.804Z,98661.75
2022-12-13T00:47:58.535Z,98653.13
2022-12-13T00:49:02.507Z,98663.75
2022-12-13T00:50:07.545Z,98663.88
2022-12-13T00:51:12.949Z,98674.06
2022-12-13T00:52:17.064Z,98673.47
2022-12-13T00:53:20.744Z,98668.06
2022-12-13T00:54:25.090Z,98667.03
2022-12-13T00:55:28.900Z,98668.25
2022-12-13T00:56:34.295Z,98674.34
2022-12-13T00:57:38.180Z,98671.75
2022-12-13T00:58:47.316Z,98670.19
2022-12-13T00:59:54.260Z,98671.16
2022-12-13T01:01:15.058Z,98681.75
2022-12-13T01:02:19.096Z,98672.44
2022-12-13T01:03:25.714Z,98679.44
2022-12-13T01:04:29.639Z,98675.13
2022-12-13T01:06:12.840Z,98677.81
2022-12-13T01:07:02.628Z,98682.13
2022-12-13T01:08:09.207Z,98673.34
2022-12-13T01:09:27.511Z,98681.25
2022-12-13T01:10:31.606Z,98676.69
2022-12-13T01:11:35.664Z,98672.38
2022-12-13T01:12:40.236Z,98664.31
2022-12-13T01:13:45.257Z,98668.19
2022-12-13T01:14:53.130Z,98674.31
2022-12-13T01:16:03.033Z,98673.59
2022-12-13T01:17:08.130Z,98676.34
2022-12-13T01:18:19.478Z,98685.09
2022-12-13T01:19:25.618Z,98681.63
2022-12-13T01:20:29.418Z,98681.56
2022-12-13T01:21:33.486Z,98677.97
2022-12-13T01:22:37.595Z,98668.19
2022-12-13T01:23:43.131Z,98681.75
2022-12-13T01:24:47.020Z,98678.28
2022-12-13T01:25:54.539Z,98678.03
2022-12-13T01:26:59.262Z,98680.66
2022-12-13T01:28:02.816Z,98680.56
2022-12-13T01:29:18.849Z,98673.66
2022-12-13T01:30:22.771Z,98681.34
2022-12-13T01:31:27.507Z,98683.81
2022-12-13T01:32:31.142Z,98689.97
2022-12-13T01:33:35.873Z,98679.03
2022-12-13T01:34:39.729Z,98683.34
2022-12-13T01:35:43.259Z,98682.41
2022-12-13T01:36:50.315Z,98677.38
2022-12-13T01:37:54.399Z,98665.97
2022-12-13T01:39:03.523Z,98679.09
2022-12-13T01:40:18.353Z,98680.00
2022-12-13T01:41:27.028Z,98680.00
2022-12-13T01:42:31.740Z,98682.41
2022-12-13T01:43:38.054Z,98687.41
2022-12-13T01:44:57.315Z,98684.94
2022-12-13T01:46:00.896Z,98689.94
2022-12-13T01:47:04.722Z,98689.97
2022-12-13T01:48:14.815Z,98684.88
2022-12-13T01:49:20.907Z,98695.72
2022-12-13T01:50:34.553Z,98694.84
2022-12-13T01:51:47.313Z,98692.88
2022-12-13T01:52:55.049Z,98698.09
2022-12-13T01:54:03.405Z,98698.38
2022-12-13T01:55:09.524Z,98699.34
2022-12-13T01:56:22.684Z,98697.50
2022-12-13T01:57:27.467Z,98697.72
2022-12-13T01:58:32.293Z,98696.22
2022-12-13T01:59:42.018Z,98700.72
2022-12-13T02:00:48.827Z,98702.50
2022-12-13T02:01:53.215Z,98696.22
2022-12-13T02:03:08.095Z,98700.72
2022-12-13T02:04:35.060Z,98692.97
2022-12-13T02:06:03.493Z,98702.44
2022-12-13T02:07:09.594Z,98709.06
2022-12-13T02:08:17.194Z,98714.47
2022-12-13T02:09:25.196Z,98708.50
2022-12-13T02:10:31.350Z,98710.97
2022-12-13T02:11:45.009Z,98722.31
2022-12-13T02:12:49.210Z,98720.34
2022-12-13T02:13:53.826Z,98721.41
2022-12-13T02:15:08.210Z,98722.25
2022-12-13T02:16:54.975Z,98721.28
2022-12-13T02:18:28.141Z,98718.47
2022-12-13T02:20:37.587Z,98722.19
2022-12-13T02:22:02.755Z,98715.47
2022-12-13T02:23:24.961Z,98723.44
2022-12-13T02:24:50.167Z,98719.72
2022-12-13T02:26:25.395Z,98728.19
2022-12-13T02:27:43.309Z,98719.59
2022-12-13T02:29:30.075Z,98717.03
2022-12-13T02:30:53.295Z,98719.69
2022-12-13T02:32:18.792Z,98722.59
2022-12-13T02:34:12.859Z,98721.03
2022-12-13T02:35:45.473Z,98718.47
2022-12-13T02:37:27.422Z,98711.31
2022-12-13T02:39:08.592Z,98709.88
2022-12-13T02:40:52.720Z,98721.03
2022-12-13T02:42:07.907Z,98720.25
2022-12-13T02:43:35.660Z,98710.03
2022-12-13T02:45:01.247Z,98716.94
2022-12-13T02:46:08.946Z,98724.84
2022-12-13T02:47:24.390Z,98722.03
2022-12-13T02:48:34.395Z,98725.22
2022-12-13T02:49:48.441Z,98732.97
2022-12-13T02:50:54.123Z,98725.22
2022-12-13T02:52:00.843Z,98719.91
2022-12-13T02:53:07.296Z,98726.91
2022-12-13T02:54:11.608Z,98719.78
2022-12-13T02:55:17.712Z,98723.94
2022-12-13T02:56:21.704Z,98724.16
2022-12-13T02:57:40.861Z,98725.47
2022-12-13T02:58:53.531Z,98728.22
2022-12-13T03:00:05.204Z,98724.63
2022-12-13T03:01:30.338Z,98723.00
2022-12-13T03:02:53.344Z,98716.06
2022-12-13T03:05:03.347Z,98730.69
2022-12-13T03:06:33.302Z,98729.97
2022-12-13T03:07:48.580Z,98732.47
2022-12-13T03:09:21.362Z,98724.84
2022-12-13T03:10:40.405Z,98737.03
2022-12-13T03:12:24.021Z,98724.44
2022-12-13T03:13:46.881Z,98731.88
2022-12-13T03:15:11.798Z,98728.56
2022-12-13T03:16:44.031Z,98727.88
2022-12-13T03:18:15.786Z,98731.16
2022-12-13T03:19:20.387Z,98734.59
2022-12-13T03:20:28.758Z,98730.06
2022-12-13T03:21:48.588Z,98727.63
2022-12-13T03:22:54.619Z,98727.72
2022-12-13T03:23:58.338Z,98731.16
2022-12-13T03:25:02.252Z,98729.28
2022-12-13T03:26:12.862Z,98724.91
2022-12-13T03:27:16.856Z,98734.34
2022-12-13T03:28:21.254Z,98731.66
2022-12-13T03:29:25.156Z,98733.63
2022-12-13T03:30:29.143Z,98731.28
2022-12-13T03:31:33.273Z,98736.31
2022-12-13T03:32:38.625Z,98733.75
2022-12-13T03:33:42.253Z,98735.38
2022-12-13T03:34:50.842Z,98743.94
2022-12-13T03:36:06.397Z,98741.41
2022-12-13T03:37:10.359Z,98731.81
2022-12-13T03:38:21.995Z,98735.78
2022-12-13T03:39:27.180Z,98733.38
2022-12-13T03:40:33.858Z,98739.50
2022-12-13T03:41:38.400Z,98734.28
2022-12-13T03:42:42.487Z,98739.63
2022-12-13T03:43:47.047Z,98743.00
2022-12-13T03:44:51.290Z,98745.69
2022-12-13T03:45:55.529Z,98744.78
2022-12-13T03:47:00.625Z,98737.81
2022-12-13T03:48:05.047Z,98744.72
2022-12-13T03:49:11.366Z,98748.25
2022-12-13T03:50:26.566Z,98747.47
2022-12-13T03:51:30.932Z,98745.78
2022-12-13T03:52:34.657Z,98739.81
2022-12-13T03:53:38.465Z,98745.97
2022-12-13T03:54:45.217Z,98750.53
2022-12-13T03:55:49.158Z,98739.31
2022-12-13T03:56:52.818Z,98750.34
2022-12-13T03:57:56.855Z,98751.84
2022-12-13T03:59:10.211Z,98751.09
2022-12-13T04:00:14.780Z,98743.22
2022-12-13T04:01:18.828Z,98752.16
2022-12-13T04:02:31.356Z,98749.59
2022-12-13T04:03:37.141Z,98751.94
2022-12-13T04:04:41.092Z,98757.47
2022-12-13T04:05:45.173Z,98755.97
2022-12-13T04:06:49.324Z,98753.16
2022-12-13T04:07:53.142Z,98754.16
2022-12-13T04:09:04.907Z,98753.19
2022-12-13T04:10:25.885Z,98755.09
2022-12-13T04:11:49.264Z,98755.56
2022-12-13T04:13:11.924Z,98763.09
2022-12-13T04:14:22.353Z,98755.22
2022-12-13T04:15:26.733Z,98769.03
2022-12-13T04:16:30.450Z,98768.97
2022-12-13T04:17:33.996Z,98763.03
2022-12-13T04:18:37.884Z,98762.78
2022-12-13T04:19:41.848Z,98766.09
2022-12-13T04:20:46.609Z,98762.72
2022-12-13T04:21:51.015Z,98765.66
2022-12-13T04:22:54.538Z,98757.47
2022-12-13T04:24:00.703Z,98771.22
2022-12-13T04:25:05.883Z,98758.47
2022-12-13T04:26:09.823Z,98768.31
2022-12-13T04:27:14.206Z,98770.13
2022-12-13T04:28:22.322Z,98759.56
2022-12-13T04:29:26.841Z,98765.59
2022-12-13T04:30:38.507Z,98771.63
2022-12-13T04:31:42.358Z,98767.03
2022-12-13T04:32:46.386Z,98763.84
2022-12-13T04:33:50.055Z,98765.50
2022-12-13T04:35:01.251Z,98765.41
2022-12-13T04:36:06.358Z,98770.91
2022-12-13T04:37:10.421Z,98781.09
2022-12-13T04:38:14.113Z,98781.94
2022-12-13T04:39:22.406Z,98776.13
2022-12-13T04:40:26.554Z,98776.31
2022-12-13T04:41:40.361Z,98779.06
2022-12-13T04:42:44.392Z,98781.66
2022-12-13T04:43:54.085Z,98786.03
2022-12-13T04:44:57.811Z,98779.06
2022-12-13T04:46:01.747Z,98778.09
2022-12-13T04:47:06.121Z,98776.38
2022-12-13T04:48:10.478Z,98773.06
2022-12-13T04:49:14.762Z,98765.28
2022-12-13T04:50:19.020Z,98775.06
2022-12-13T04:51:23.204Z,98781.97
2022-12-13T04:52:26.869Z,98776.03
2022-12-13T04:53:30.922Z,98773.66
2022-12-13T04:54:36.149Z,98782.41
2022-12-13T04:55:40.663Z,98778.03
2022-12-13T04:56:44.836Z,98776.53
2022-12-13T04:57:49.641Z,98782.63
2022-12-13T04:58:53.538Z,98782.63
2022-12-13T04:59:57.464Z,98776.38
2022-12-13T05:01:01.420Z,98777.06
2022-12-13T05:02:07.797Z,98771.84
2022-12-13T05:03:11.643Z,98784.81
2022-12-13T05:04:15.503Z,98784.81
2022-12-13T05:05:19.425Z,98782.59
2022-12-13T05:06:27.429Z,98785.91
2022-12-13T05:07:31.569Z,98782.59
2022-12-13T05:08:36.742Z,98777.38
2022-12-13T05:09:40.366Z,98779.22
2022-12-13T05:10:44.038Z,98779.00
2022-12-13T05:11:47.832Z,98782.59
2022-12-13T05:12:51.532Z,98777.44
2022-12-13T05:13:55.407Z,98786.34
2022-12-13T05:14:59.144Z,98783.91
2022-12-13T05:16:06.967Z,98780.25
2022-12-13T05:17:10.635Z,98784.69
2022-12-13T05:18:14.830Z,98785.47
2022-12-13T05:19:18.475Z,98784.63
2022-12-13T05:20:22.879Z,98782.06
2022-12-13T05:21:26.481Z,98787.34
2022-12-13T05:22:30.284Z,98788.38
2022-12-13T05:23:34.569Z,98786.44
2022-12-13T05:24:38.623Z,98781.97
2022-12-13T05:25:42.455Z,98788.09
2022-12-13T05:26:46.687Z,98785.28
2022-12-13T05:27:57.051Z,98787.66
2022-12-13T05:29:01.557Z,98791.91
2022-12-13T05:30:05.950Z,98789.31
2022-12-13T05:31:22.397Z,98788.44
2022-12-13T05:32:27.827Z,98791.78
2022-12-13T05:33:32.351Z,98787.63
2022-12-13T05:34:36.447Z,98790.41
2022-12-13T05:35:40.352Z,98794.09
2022-12-13T05:36:44.285Z,98793.28
2022-12-13T05:37:48.026Z,98801.25
2022-12-13T05:38:57.607Z,98796.00
2022-12-13T05:40:02.634Z,98795.84
2022-12-13T05:41:07.142Z,98795.72
2022-12-13T05:42:11.903Z,98794.94
2022-12-13T05:43:21.828Z,98789.09
2022-12-13T05:44:26.861Z,98793.41
2022-12-13T05:45:33.672Z,98796.75
2022-12-13T05:46:41.508Z,98791.53
2022-12-13T05:47:46.151Z,98780.25
2022-12-13T05:48:49.839Z,98786.25
2022-12-13T05:49:53.581Z,98793.16
2022-12-13T05:51:10.476Z,98795.81
2022-12-13T05:52:30.533Z,98792.34
2022-12-13T05:53:35.181Z,98795.81
2022-12-13T05:54:38.930Z,98799.13
2022-12-13T05:55:46.911Z,98797.34
2022-12-13T05:56:51.097Z,98795.81
2022-12-13T05:57:54.980Z,98797.47
2022-12-13T05:59:06.718Z,98804.66
2022-12-13T06:00:29.759Z,98806.44
2022-12-13T06:01:34.188Z,98802.13
2022-12-13T06:02:44.300Z,98804.78
2022-12-13T06:03:48.288Z,98805.53
2022-12-13T06:04:53.022Z,98805.53
2022-12-13T06:05:56.620Z,98804.75
2022-12-13T06:07:00.852Z,98812.63
2022-12-13T06:08:24.424Z,98806.59
2022-12-13T06:09:28.353Z,98810.63
2022-12-13T06:10:34.123Z,98802.91
2022-12-13T06:11:43.483Z,98811.63
2022-12-13T06:12:47.290Z,98809.09
2022-12-13T06:13:53.408Z,98809.06
2022-12-13T06:15:21.612Z,98817.78
2022-12-13T06:16:26.584Z,98813.63
2022-12-13T06:17:36.453Z,98815.16
2022-12-13T06:18:40.219Z,98818.56
2022-12-13T06:19:44.009Z,98816.69
2022-12-13T06:21:06.251Z,98821.91
2022-12-13T06:22:10.363Z,98819.19
2022-12-13T06:23:14.910Z,98819.41
2022-12-13T06:24:21.537Z,98829.78
2022-12-13T06:25:31.106Z,98825.38
2022-12-13T06:26:37.228Z,98827.94
2022-12-13T06:27:41.040Z,98826.22
2022-12-13T06:28:44.740Z,98824.84
2022-12-13T06:29:48.763Z,98829.25
2022-12-13T06:30:52.623Z,98833.50
2022-12-13T06:32:02.833Z,98832.72
2022-12-13T06:33:09.586Z,98831.63
2022-12-13T06:34:17.137Z,98835.09
2022-12-13T06:35:28.914Z,98834.47
2022-12-13T06:36:33.839Z,98829.22
2022-12-13T06:37:37.623Z,98831.06
2022-12-13T06:38:43.637Z,98838.03
2022-12-13T06:39:48.374Z,98847.72
2022-12-13T06:40:52.532Z,98844.84
2022-12-13T06:41:56.799Z,98841.44
2022-12-13T06:43:00.950Z,98843.16
2022-12-13T06:44:05.342Z,98839.56
2022-12-13T06:45:09.911Z,98850.78
2022-12-13T06:46:17.596Z,98843.09
2022-12-13T06:47:31.064Z,98839.56
2022-12-13T06:48:36.448Z,98850.75
2022-12-13T06:49:47.058Z,98845.47
2022-12-13T06:50:51.544Z,98855.78
2022-12-13T06:51:55.805Z,98846.22
2022-12-13T06:53:01.218Z,98847.94
2022-12-13T06:54:21.905Z,98848.78
2022-12-13T06:55:25.866Z,98851.44
2022-12-13T06:56:30.312Z,98854.75
2022-12-13T06:57:34.701Z,98852.94
2022-12-13T06:58:39.935Z,98863.31
2022-12-13T06:59:44.327Z,98854.59
2022-12-13T07:00:49.653Z,98859.69
2022-12-13T07:02:03.290Z,98863.25
2022-12-13T07:03:10.161Z,98869.53
2022-12-13T07:04:30.201Z,98861.06
2022-12-13T07:05:34.982Z,98866.81
2022-12-13T07:06:39.290Z,98865.13
2022-12-13T07:07:42.925Z,98871.19
2022-12-13T07:08:56.754Z,98871.25
2022-12-13T07:10:01.393Z,98871.97
2022-12-13T07:11:05.692Z,98869.59
2022-12-13T07:12:10.730Z,98877.25
2022-12-13T07:13:15.350Z,98873.72
2022-12-13T07:14:18.968Z,98868.63
2022-12-13T07:15:22.825Z,98872.94
2022-12-13T07:16:28.304Z,98871.84
2022-12-13T07:17:34.596Z,98879.06
2022-12-13T07:18:39.632Z,98882.44
2022-12-13T07:19:43.958Z,98886.81
2022-12-13T07:20:48.100Z,98878.94
2022-12-13T07:21:54.623Z,98885.84
2022-12-13T07:23:05.623Z,98886.84
2022-12-13T07:24:09.721Z,98885.97
2022-12-13T07:25:28.052Z,98889.44
2022-12-13T07:26:33.102Z,98888.53
2022-12-13T07:27:37.747Z,98887.69
2022-12-13T07:28:41.334Z,98899.00
2022-12-13T07:29:45.096Z,98889.59
2022-12-13T07:30:49.828Z,98898.34
2022-12-13T07:31:54.170Z,98894.84
2022-12-13T07:33:07.179Z,98901.78
2022-12-13T07:34:15.445Z,98902.63
2022-12-13T07:35:21.007Z,98896.56
2022-12-13T07:36:27.060Z,98899.97
2022-12-13T07:37:31.296Z,98900.81
2022-12-13T07:38:36.348Z,98899.78
2022-12-13T07:39:40.179Z,98905.00
2022-12-13T07:40:44.073Z,98908.41
2022-12-13T07:41:48.321Z,98896.19
2022-12-13T07:42:57.553Z,98902.22
2022-12-13T07:44:01.241Z,98903.97
2022-12-13T07:45:06.092Z,98901.50
2022-12-13T07:46:12.918Z,98899.88
2022-12-13T07:47:17.026Z,98904.41
2022-12-13T07:48:20.939Z,98905.22
2022-12-13T07:49:25.211Z,98903.44
2022-12-13T07:50:29.041Z,98904.50
2022-12-13T07:51:43.157Z,98913.91
2022-12-13T07:52:51.561Z,98901.78
2022-12-13T07:53:55.124Z,98903.53
2022-12-13T07:54:58.870Z,98905.28
2022-12-13T07:56:05.127Z,98900.78
2022-12-13T07:57:08.867Z,98905.19
2022-12-13T07:58:15.322Z,98903.47
2022-12-13T07:59:28.610Z,98910.28
2022-12-13T08:00:33.435Z,98907.69
2022-12-13T08:01:37.797Z,98902.31
2022-12-13T08:02:42.375Z,98902.25
2022-12-13T08:03:49.172Z,98908.34
2022-12-13T08:04:55.099Z,98905.75
2022-12-13T08:06:14.049Z,98907.56
2022-12-13T08:07:18.208Z,98912.69
2022-12-13T08:08:21.887Z,98905.84
2022-12-13T08:09:35.633Z,98901.31
2022-12-13T08:10:39.948Z,98911.75
2022-12-13T08:11:43.893Z,98909.03
2022-12-13T08:12:47.638Z,98914.88
2022-12-13T08:13:54.116Z,98911.38
2022-12-13T08:14:57.724Z,98920.94
2022-12-13T08:16:05.327Z,98914.09
2022-12-13T08:17:29.302Z,98919.03
2022-12-13T08:18:33.459Z,98912.16
2022-12-13T08:19:37.324Z,98910.28
2022-12-13T08:20:41.359Z,98920.41
2022-12-13T08:21:54.665Z,98918.94
2022-12-13T08:23:01.927Z,98918.16
2022-12-13T08:24:15.384Z,98918.09
2022-12-13T08:25:20.486Z,98913.56
2022-12-13T08:26:24.371Z,98913.72
2022-12-13T08:27:28.561Z,98913.00
2022-12-13T08:28:34.017Z,98916.41
2022-12-13T08:29:38.024Z,98916.69
2022-12-13T08:30:41.709Z,98906.38
2022-12-13T08:31:46.436Z,98913.97
2022-12-13T08:32:51.359Z,98916.34
2022-12-13T08:33:55.251Z,98924.16
2022-12-13T08:34:59.229Z,98918.13
2022-12-13T08:36:16.539Z,98926.84
2022-12-13T08:37:20.640Z,98930.00
2022-12-13T08:38:24.443Z,98925.53
2022-12-13T08:39:28.637Z,98924.63
2022-12-13T08:40:32.881Z,98929.66
2022-12-13T08:41:39.271Z,98930.56
2022-12-13T08:42:43.592Z,98925.28
2022-12-13T08:43:48.181Z,98930.44
2022-12-13T08:44:54.160Z,98932.16
2022-12-13T08:46:01.277Z,98934.94
2022-12-13T08:47:10.427Z,98930.44
2022-12-13T08:48:15.108Z,98922.63
2022-12-13T08:49:23.122Z,98932.16
2022-12-13T08:50:27.850Z,98927.72
2022-12-13T08:51:35.622Z,98924.22
2022-12-13T08:52:42.476Z,98930.50
2022-12-13T08:53:46.497Z,98925.41
2022-12-13T08:54:51.131Z,98931.25
2022-12-13T08:55:59.395Z,98923.75
2022-12-13T08:57:03.653Z,98927.34
2022-12-13T08:58:08.890Z,98923.81
2022-12-13T08:59:12.651Z,98927.47
2022-12-13T09:00:21.721Z,98929.16
2022-12-13T09:01:25.982Z,98928.13
2022-12-13T09:02:29.694Z,98926.13
2022-12-13T09:03:41.584Z,98927.78
2022-12-13T09:04:48.096Z,98924.56
2022-12-13T09:05:55.297Z,98922.06
2022-12-13T09:07:01.378Z,98924.44
2022-12-13T09:08:13.311Z,98914.88
2022-12-13T09:09:29.724Z,98916.53
2022-12-13T09:10:38.157Z,98915.88
2022-12-13T09:11:42.628Z,98915.03
2022-12-13T09:12:50.450Z,98920.25
2022-12-13T09:14:01.234Z,98914.00
2022-12-13T09:15:06.845Z,98920.97
2022-12-13T09:16:27.164Z,98916.53
2022-12-13T09:17:36.484Z,98918.91
2022-12-13T09:18:42.612Z,98913.59
2022-12-13T09:19:49.707Z,98910.78
2022-12-13T09:20:53.315Z,98913.59
2022-12-13T09:22:14.886Z,98921.09
2022-12-13T09:23:23.506Z,98912.25
2022-12-13T09:24:28.741Z,98912.41
2022-12-13T09:25:40.646Z,98916.75
2022-12-13T09:26:45.475Z,98917.41
2022-12-13T09:27:49.532Z,98914.63
2022-12-13T09:28:55.561Z,98914.81
2022-12-13T09:30:00.718Z,98913.16
2022-12-13T09:31:16.362Z,98916.25
2022-12-13T09:32:20.350Z,98913.72
2022-12-13T09:33:29.996Z,98918.13
2022-12-13T09:34:35.201Z,98916.31
2022-12-13T09:35:39.284Z,98911.09
2022-12-13T09:36:42.954Z,98919.16
2022-12-13T09:37:47.316Z,98916.00
2022-12-13T09:38:53.171Z,98917.59
2022-12-13T09:39:57.044Z,98912.25
2022-12-13T09:41:28.705Z,98919.19
2022-12-13T09:42:35.789Z,98919.94
2022-12-13T09:44:02.563Z,98925.03
2022-12-13T09:45:22.399Z,98919.94
2022-12-13T09:46:44.352Z,98917.53
2022-12-13T09:47:51.458Z,98918.94
2022-12-13T09:49:01.884Z,98919.75
2022-12-13T09:50:38.697Z,98923.28
2022-12-13T09:52:10.081Z,98919.75
2022-12-13T09:53:33.703Z,98923.53
2022-12-13T09:54:48.241Z,98923.00
2022-12-13T09:55:52.771Z,98925.41
2022-12-13T09:57:00.493Z,98925.25
2022-12-13T09:58:18.479Z,98927.25
2022-12-13T09:59:30.376Z,98928.81
2022-12-13T10:00:37.286Z,98923.47
2022-12-13T10:01:41.093Z,98926.81
2022-12-13T10:02:58.995Z,98927.66
2022-12-13T10:04:02.756Z,98924.41
2022-12-13T10:05:38.567Z,98921.19
2022-12-13T10:06:42.952Z,98922.09
2022-12-13T10:07:47.092Z,98922.00
2022-12-13T10:08:57.912Z,98929.34
2022-12-13T10:10:04.531Z,98929.16
2022-12-13T10:11:13.241Z,98928.88
2022-12-13T10:12:18.770Z,98928.75
2022-12-13T10:13:43.717Z,98919.94
2022-12-13T10:14:58.419Z,98921.66
2022-12-13T10:16:15.967Z,98921.09
2022-12-13T10:17:39.408Z,98917.78
2022-12-13T10:18:45.334Z,98918.81
2022-12-13T10:19:51.908Z,98915.28
2022-12-13T10:20:56.612Z,98916.16
2022-12-13T10:22:03.944Z,98923.13
2022-12-13T10:23:33.134Z,98918.75
2022-12-13T10:25:00.894Z,98920.50
2022-12-13T10:26:14.731Z,98919.06
2022-12-13T10:27:42.852Z,98922.63
2022-12-13T10:29:08.529Z,98916.38
2022-12-13T10:30:14.969Z,98920.97
2022-12-13T10:31:23.170Z,98908.63
2022-12-13T10:32:28.765Z,98917.41
2022-12-13T10:33:37.315Z,98920.56
2022-12-13T10:34:41.414Z,98910.19
2022-12-13T10:35:47.499Z,98913.69
2022-12-13T10:36:52.852Z,98910.97
2022-12-13T10:38:32.067Z,98910.19
2022-12-13T10:39:52.833Z,98913.94
2022-12-13T10:40:56.971Z,98917.22
2022-12-13T10:42:14.489Z,98906.66
2022-12-13T10:43:31.028Z,98910.31
2022-12-13T10:44:34.831Z,98917.97
2022-12-13T10:45:38.712Z,98909.94
2022-12-13T10:46:55.447Z,98918.31
2022-12-13T10:48:04.002Z,98913.47
2022-12-13T10:49:52.226Z,98911.66
2022-12-13T10:51:17.888Z,98909.69
2022-12-13T10:52:31.484Z,98920.69
2022-12-13T10:53:47.405Z,98906.66
2022-12-13T10:54:53.250Z,98918.25
2022-12-13T10:56:06.888Z,98918.13
2022-12-13T10:57:13.413Z,98911.16
2022-12-13T10:58:20.631Z,98916.31
2022-12-13T10:59:39.540Z,98917.22
2022-12-13T11:00:46.991Z,98915.09
2022-12-13T11:01:55.303Z,98917.03
2022-12-13T11:03:02.728Z,98907.34
2022-12-13T11:04:36.962Z,98915.72
2022-12-13T11:05:41.388Z,98911.22
2022-12-13T11:06:48.516Z,98911.94
2022-12-13T11:08:15.356Z,98909.13
2022-12-13T11:09:39.058Z,98912.34
2022-12-13T11:10:44.132Z,98914.63
2022-12-13T11:11:58.519Z,98915.34
2022-12-13T11:13:08.937Z,98903.22
2022-12-13T11:14:31.775Z,98915.03
2022-12-13T11:15:39.075Z,98906.50
2022-12-13T11:16:51.006Z,98910.00
2022-12-13T11:18:05.133Z,98906.88
2022-12-13T11:19:25.473Z,98909.53
2022-12-13T11:22:02.333Z,98902.56
2022-12-13T11:23:29.933Z,98902.50
2022-12-13T11:24:41.216Z,98900.41
2022-12-13T11:25:55.821Z,98897.66
2022-12-13T11:27:29.850Z,98888.13
2022-12-13T11:29:29.775Z,98888.91
2022-12-13T11:31:07.869Z,98893.03
2022-12-13T11:32:56.005Z,98897.28
2022-12-13T11:34:42.700Z,98898.00
2022-12-13T11:36:18.949Z,98890.81
2022-12-13T11:37:52.823Z,98890.03
2022-12-13T11:39:31.035Z,98892.16
2022-12-13T11:40:54.670Z,98888.88
2022-12-13T11:42:29.563Z,98883.41
2022-12-13T11:43:55.798Z,98893.53
2022-12-13T11:45:23.067Z,98897.91
2022-12-13T11:47:08.159Z,98895.22
2022-12-13T11:48:25.964Z,98889.84
2022-12-13T11:49:46.969Z,98887.28
2022-12-13T11:50:57.270Z,98894.19
2022-12-13T11:52:49.967Z,98893.88
2022-12-13T11:54:13.408Z,98894.16
2022-12-13T11:55:40.870Z,98892.38
2022-12-13T11:56:46.316Z,98896.09
2022-12-13T11:59:00.670Z,98896.75
2022-12-13T12:00:02.326Z,98887.59
2022-12-13T12:01:32.504Z,98896.81
2022-12-13T12:02:53.612Z,98898.44
2022-12-13T12:04:19.477Z,98895.97
2022-12-13T12:05:38.837Z,98896.81
2022-12-13T12:07:33.255Z,98901.81
2022-12-13T12:08:56.881Z,98897.25
2022-12-13T12:10:30.986Z,98904.75
2022-12-13T12:12:00.733Z,98892.75
2022-12-13T12:13:23.375Z,98900.00
2022-12-13T12:14:44.218Z,98898.44
2022-12-13T12:16:01.840Z,98898.44
2022-12-13T12:17:07.384Z,98900.81
2022-12-13T12:18:16.668Z,98897.13
2022-12-13T12:19:56.275Z,98905.72
2022-12-13T12:22:04.799Z,98898.50
2022-12-13T12:23:23.643Z,98899.34
2022-12-13T12:25:14.037Z,98900.47
2022-12-13T12:26:24.114Z,98899.28
2022-12-13T12:28:02.300Z,98897.59
2022-12-13T12:30:08.781Z,98903.94
2022-12-13T12:31:32.034Z,98903.53
2022-12-13T12:33:29.625Z,98904.09
2022-12-13T12:34:47.960Z,98903.44
2022-12-13T12:36:43.571Z,98893.94
2022-12-13T12:37:56.643Z,98901.63
2022-12-13T12:39:15.195Z,98902.88
2022-12-13T12:41:07.008Z,98899.53
2022-12-13T12:42:26.868Z,98905.44
2022-12-13T12:43:43.892Z,98903.44
2022-12-13T12:44:51.275Z,98894.69
2022-12-13T12:46:22.273Z,98899.72
2022-12-13T12:48:08.977Z,98896.97
2022-12-13T12:49:46.094Z,98905.59
2022-12-13T12:51:05.128Z,98913.91
2022-12-13T12:52:39.469Z,98909.53
2022-12-13T12:54:15.944Z,98912.50
2022-12-13T12:55:42.296Z,98913.94
2022-12-13T12:57:05.065Z,98909.44
2022-12-13T12:58:46.047Z,98917.59
2022-12-13T13:00:10.188Z,98923.59
2022-12-13T13:01:58.482Z,98918.25
2022-12-13T13:03:28.381Z,98919.94
2022-12-13T13:04:46.646Z,98919.09
2022-12-13T13:06:06.344Z,98913.94
2022-12-13T13:07:40.363Z,98921.69
2022-12-13T13:09:11.066Z,98917.31
2022-12-13T13:10:26.763Z,98915.63
2022-12-13T13:11:43.041Z,98918.81
2022-12-13T13:12:51.657Z,98910.94
2022-12-13T13:14:03.481Z,98918.75
2022-12-13T13:15:44.821Z,98919.75
2022-12-13T13:16:50.001Z,98918.34
2022-12-13T13:17:55.128Z,98918.34
2022-12-13T13:19:04.186Z,98912.94
2022-12-13T13:20:23.790Z,98919.09
2022-12-13T13:21:50.864Z,98911.16
2022-12-13T13:23:38.610Z,98914.72
2022-12-13T13:24:25.976Z,98914.50
2022-12-13T13:25:32.542Z,98922.34
2022-12-13T13:26:43.656Z,98919.81
2022-12-13T13:27:51.743Z,98917.06
2022-12-13T13:29:15.859Z,98921.88
2022-12-13T13:30:33.603Z,98923.88
2022-12-13T13:32:12.364Z,98926.97
2022-12-13T13:33:50.133Z,98931.25
2022-12-13T13:34:54.088Z,98921.75
2022-12-13T13:36:04.807Z,98920.91
2022-12-13T13:37:48.445Z,98916.41
2022-12-13T13:38:55.612Z,98922.63
2022-12-13T13:40:30.345Z,98926.34
2022-12-13T13:42:14.448Z,98928.22
2022-12-13T13:43:32.593Z,98921.09
2022-12-13T13:44:46.211Z,98925.38
2022-12-13T13:45:50.103Z,98921.91
2022-12-13T13:47:15.150Z,98927.13
2022-12-13T13:48:41.981Z,98923.59
2022-12-13T13:50:17.122Z,98929.19
2022-12-13T13:52:30.214Z,98927.38
2022-12-13T13:53:55.976Z,98931.03
2022-12-13T13:55:26.693Z,98927.59
2022-12-13T13:57:28.934Z,98920.84
2022-12-13T13:59:29.600Z,98940.41
2022-12-13T14:01:11.847Z,98937.97
2022-12-13T14:02:56.438Z,98941.13
2022-12-13T14:04:55.460Z,98935.00
2022-12-13T14:06:45.788Z,98944.16
2022-12-13T14:08:32.622Z,98940.13
2022-12-13T14:10:14.050Z,98952.31
2022-12-13T14:11:43.299Z,98955.09
2022-12-13T14:13:18.036Z,98952.31
2022-12-13T14:14:50.027Z,98955.09